Time;durP1;ratioP1;P1;durP2;ratioP2;P2;SDS_P1;SDS_P2;PMS_P1;PMS_P2;Temp;Humidity;BMP_temperature;BMP_pressure;BME280_temperature;BME280_humidity;BME280_pressure;Samples;Min_cycle;Max_cycle;Signal;HPM_P1;HPM_P2
2022/08/31 00:04:28;;;;;;;2.60;2.50;;;;;;;;;;5060184;28;20229;-76
2022/08/31 00:06:54;;;;;;;2.83;2.72;;;;;;;;;;5077847;28;20278;-76
2022/08/31 00:09:20;;;;;;;2.35;2.25;;;;;;;;;;5069353;28;20221;-76
2022/08/31 00:11:46;;;;;;;2.50;2.40;;;;;;;;;;5073043;28;20190;-75
2022/08/31 00:14:12;;;;;;;2.20;2.10;;;;;;;;;;5058725;28;20226;-74
2022/08/31 00:16:38;;;;;;;2.50;2.40;;;;;;;;;;5073818;28;20214;-75
2022/08/31 00:19:04;;;;;;;2.20;2.10;;;;;;;;;;5072859;28;20273;-76
2022/08/31 00:21:30;;;;;;;2.70;2.60;;;;;;;;;;5045874;28;20675;-76
2022/08/31 00:23:56;;;;;;;2.40;2.30;;;;;;;;;;5077900;28;20256;-75
2022/08/31 00:26:22;;;;;;;2.53;2.42;;;;;;;;;;5067072;28;20239;-75
2022/08/31 00:28:48;;;;;;;2.47;2.38;;;;;;;;;;5049880;28;21522;-75
2022/08/31 00:31:14;;;;;;;2.60;2.50;;;;;;;;;;5039414;28;23461;-75
2022/08/31 00:33:40;;;;;;;2.77;2.67;;;;;;;;;;5032094;28;20218;-75
2022/08/31 00:36:07;;;;;;;2.67;2.57;;;;;;;;;;5045568;28;20281;-74
2022/08/31 00:38:33;;;;;;;2.50;2.40;;;;;;;;;;5039065;28;20234;-75
2022/08/31 00:40:59;;;;;;;2.70;2.60;;;;;;;;;;5043633;28;20225;-75
2022/08/31 00:43:36;;;;;;;2.70;2.60;;;;;;;;;;5036574;28;20864;-75
2022/08/31 00:46:02;;;;;;;2.60;2.50;;;;;;;;;;5023616;28;21293;-75
2022/08/31 00:48:28;;;;;;;2.50;2.40;;;;;;;;;;5074518;28;20226;-75
2022/08/31 00:50:54;;;;;;;2.60;2.50;;;;;;;;;;5051756;28;20219;-75
2022/08/31 00:53:20;;;;;;;2.90;2.80;;;;;;;;;;5036463;28;20225;-75
2022/08/31 00:55:46;;;;;;;2.70;2.60;;;;;;;;;;5030315;28;20239;-75
2022/08/31 00:58:12;;;;;;;2.43;2.33;;;;;;;;;;5032623;28;20762;-75
2022/08/31 01:00:39;;;;;;;2.60;2.50;;;;;;;;;;5040231;28;20231;-75
2022/08/31 01:03:05;;;;;;;2.40;2.30;;;;;;;;;;5035045;28;20226;-76
2022/08/31 01:05:31;;;;;;;2.10;2.00;;;;;;;;;;5054798;28;20226;-75
2022/08/31 01:07:57;;;;;;;2.00;1.90;;;;;;;;;;5052871;28;21251;-75
2022/08/31 01:10:23;;;;;;;2.40;2.30;;;;;;;;;;5045149;28;20224;-75
2022/08/31 01:12:50;;;;;;;2.40;2.30;;;;;;;;;;5021854;28;20207;-75
2022/08/31 01:15:16;;;;;;;2.63;2.53;;;;;;;;;;5042447;28;20188;-75
2022/08/31 01:17:42;;;;;;;2.50;2.40;;;;;;;;;;5034137;28;20237;-75
2022/08/31 01:20:16;;;;;;;2.77;2.67;;;;;;;;;;5054357;28;20227;-74
2022/08/31 01:22:55;;;;;;;2.40;2.30;;;;;;;;;;5057589;28;20236;-76
2022/08/31 01:25:20;;;;;;;2.80;2.70;;;;;;;;;;5045199;28;20234;-76
2022/08/31 01:27:46;;;;;;;2.63;2.53;;;;;;;;;;5027464;28;20221;-74
2022/08/31 01:30:13;;;;;;;2.83;2.73;;;;;;;;;;5030757;28;20221;-75
2022/08/31 01:32:39;;;;;;;2.60;2.50;;;;;;;;;;5028266;28;20242;-75
2022/08/31 01:35:06;;;;;;;2.80;2.70;;;;;;;;;;5038335;28;20311;-75
2022/08/31 01:37:32;;;;;;;2.70;2.60;;;;;;;;;;5042516;28;21313;-75
2022/08/31 01:39:58;;;;;;;2.80;2.70;;;;;;;;;;5046810;28;20257;-75
2022/08/31 01:42:24;;;;;;;2.60;2.50;;;;;;;;;;5053250;28;20295;-75
2022/08/31 01:44:49;;;;;;;2.87;2.77;;;;;;;;;;5036836;28;20225;-75
2022/08/31 01:47:15;;;;;;;2.83;2.73;;;;;;;;;;5041372;28;20638;-75
2022/08/31 01:49:41;;;;;;;2.70;2.60;;;;;;;;;;5074466;28;20758;-75
2022/08/31 01:52:07;;;;;;;2.70;2.60;;;;;;;;;;5079593;28;20762;-74
2022/08/31 01:54:33;;;;;;;2.80;2.70;;;;;;;;;;5067241;28;21114;-75
2022/08/31 01:57:00;;;;;;;2.60;2.50;;;;;;;;;;5072861;28;20678;-75
2022/08/31 01:59:26;;;;;;;3.10;3.00;;;;;;;;;;5071323;28;20230;-74
2022/08/31 02:01:53;;;;;;;2.60;2.50;;;;;;;;;;5055819;28;20223;-76
2022/08/31 02:04:19;;;;;;;2.60;2.50;;;;;;;;;;5045022;28;20203;-75
2022/08/31 02:06:46;;;;;;;2.70;2.60;;;;;;;;;;5058748;28;20221;-75
2022/08/31 02:09:13;;;;;;;2.57;2.47;;;;;;;;;;5055336;28;20222;-74
2022/08/31 02:11:39;;;;;;;2.90;2.80;;;;;;;;;;5055966;28;20233;-75
2022/08/31 02:14:05;;;;;;;2.50;2.40;;;;;;;;;;5056034;28;20611;-75
2022/08/31 02:16:31;;;;;;;2.93;2.83;;;;;;;;;;5038512;28;20318;-75
2022/08/31 02:18:57;;;;;;;2.40;2.30;;;;;;;;;;5053618;28;20226;-74
2022/08/31 02:21:23;;;;;;;2.83;2.73;;;;;;;;;;5062978;28;20228;-75
2022/08/31 02:23:49;;;;;;;2.77;2.67;;;;;;;;;;5071250;28;20234;-75
2022/08/31 02:26:15;;;;;;;2.80;2.70;;;;;;;;;;5065277;28;20226;-74
2022/08/31 02:28:41;;;;;;;2.40;2.30;;;;;;;;;;5073464;28;20221;-75
2022/08/31 02:31:06;;;;;;;2.60;2.50;;;;;;;;;;5047973;28;20188;-75
2022/08/31 02:33:32;;;;;;;2.90;2.80;;;;;;;;;;5053467;28;20210;-74
2022/08/31 02:35:58;;;;;;;2.73;2.63;;;;;;;;;;5076218;28;20254;-74
2022/08/31 02:38:24;;;;;;;2.60;2.50;;;;;;;;;;5074654;28;20647;-75
2022/08/31 02:40:50;;;;;;;2.70;2.60;;;;;;;;;;5076495;28;20222;-75
2022/08/31 02:43:16;;;;;;;2.50;2.40;;;;;;;;;;5072309;28;20249;-74
2022/08/31 02:45:42;;;;;;;2.70;2.60;;;;;;;;;;5064151;28;20222;-75
2022/08/31 02:48:09;;;;;;;2.50;2.40;;;;;;;;;;5037765;28;20239;-74
2022/08/31 02:50:42;;;;;;;2.60;2.50;;;;;;;;;;5034905;28;20229;-75
2022/08/31 02:53:08;;;;;;;2.60;2.50;;;;;;;;;;5058070;28;20230;-74
2022/08/31 02:55:34;;;;;;;2.73;2.63;;;;;;;;;;5023631;28;20233;-75
2022/08/31 02:58:00;;;;;;;2.60;2.50;;;;;;;;;;5055859;28;20208;-74
2022/08/31 03:00:26;;;;;;;2.83;2.73;;;;;;;;;;5051479;28;20234;-75
2022/08/31 03:02:53;;;;;;;3.20;3.10;;;;;;;;;;5052767;28;21320;-75
2022/08/31 03:05:20;;;;;;;2.60;2.50;;;;;;;;;;5040112;28;20215;-74
2022/08/31 03:07:48;;;;;;;3.07;2.97;;;;;;;;;;5051802;28;20205;-75
2022/08/31 03:10:14;;;;;;;2.60;2.50;;;;;;;;;;5071774;28;21212;-75
2022/08/31 03:12:40;;;;;;;2.80;2.70;;;;;;;;;;5042920;28;20210;-75
2022/08/31 03:15:06;;;;;;;2.67;2.57;;;;;;;;;;5050368;28;20194;-75
2022/08/31 03:17:32;;;;;;;2.93;2.83;;;;;;;;;;5042044;28;20584;-74
2022/08/31 03:20:01;;;;;;;2.90;2.80;;;;;;;;;;5041582;28;20260;-74
2022/08/31 03:22:27;;;;;;;2.90;2.80;;;;;;;;;;5060388;28;20246;-74
2022/08/31 03:24:53;;;;;;;2.70;2.60;;;;;;;;;;5043506;28;20340;-74
2022/08/31 03:27:19;;;;;;;2.60;2.50;;;;;;;;;;5060582;28;20219;-73
2022/08/31 03:29:45;;;;;;;2.80;2.70;;;;;;;;;;5060283;28;20198;-73
2022/08/31 03:32:11;;;;;;;2.70;2.60;;;;;;;;;;5039431;28;20218;-74
2022/08/31 03:34:37;;;;;;;2.90;2.80;;;;;;;;;;5047968;28;20309;-74
2022/08/31 03:37:03;;;;;;;3.07;2.97;;;;;;;;;;5063816;28;20223;-74
2022/08/31 03:39:29;;;;;;;2.70;2.60;;;;;;;;;;5074112;28;20290;-74
2022/08/31 03:41:55;;;;;;;2.63;2.53;;;;;;;;;;5071531;28;20202;-73
2022/08/31 03:44:22;;;;;;;2.40;2.30;;;;;;;;;;5059232;28;20218;-73
2022/08/31 03:46:49;;;;;;;2.60;2.50;;;;;;;;;;5049661;28;20633;-74
2022/08/31 03:49:15;;;;;;;2.60;2.50;;;;;;;;;;5053264;28;20226;-74
2022/08/31 03:51:40;;;;;;;2.97;2.87;;;;;;;;;;5054312;28;21217;-73
2022/08/31 03:54:07;;;;;;;2.83;2.73;;;;;;;;;;5063965;28;20206;-74
2022/08/31 03:56:32;;;;;;;2.67;2.57;;;;;;;;;;5061035;28;20205;-74
2022/08/31 03:58:58;;;;;;;2.80;2.70;;;;;;;;;;5055011;27;20222;-74
2022/08/31 04:01:24;;;;;;;2.60;2.50;;;;;;;;;;5067881;28;20215;-75
2022/08/31 04:03:50;;;;;;;2.43;2.33;;;;;;;;;;5054995;28;20218;-74
2022/08/31 04:06:16;;;;;;;2.60;2.50;;;;;;;;;;5055621;28;20337;-74
2022/08/31 04:08:42;;;;;;;2.80;2.70;;;;;;;;;;5079356;28;20315;-73
2022/08/31 04:11:09;;;;;;;2.20;2.10;;;;;;;;;;5069548;28;20273;-73
2022/08/31 04:13:35;;;;;;;2.50;2.40;;;;;;;;;;5055573;28;20233;-74
2022/08/31 04:16:01;;;;;;;2.73;2.63;;;;;;;;;;5036085;28;20212;-74
2022/08/31 04:18:27;;;;;;;2.20;2.10;;;;;;;;;;5069410;28;20222;-74
2022/08/31 04:20:53;;;;;;;2.60;2.50;;;;;;;;;;5049019;28;20730;-74
2022/08/31 04:23:20;;;;;;;2.30;2.20;;;;;;;;;;5080910;28;20696;-74
2022/08/31 04:25:46;;;;;;;2.30;2.20;;;;;;;;;;5063619;28;20333;-74
2022/08/31 04:28:12;;;;;;;2.20;2.10;;;;;;;;;;5079826;28;20202;-74
2022/08/31 04:30:41;;;;;;;2.47;2.37;;;;;;;;;;5059739;28;20337;-74
2022/08/31 04:33:07;;;;;;;2.70;2.60;;;;;;;;;;5050323;28;20229;-74
2022/08/31 04:35:33;;;;;;;2.50;2.40;;;;;;;;;;5056865;28;21080;-73
2022/08/31 04:37:59;;;;;;;2.40;2.30;;;;;;;;;;5075518;28;20304;-73
2022/08/31 04:40:25;;;;;;;2.70;2.60;;;;;;;;;;5080082;27;20227;-73
2022/08/31 04:42:50;;;;;;;2.60;2.50;;;;;;;;;;5071251;28;21071;-73
2022/08/31 04:45:16;;;;;;;2.60;2.50;;;;;;;;;;5084311;28;20190;-73
2022/08/31 04:47:42;;;;;;;2.20;2.10;;;;;;;;;;5052688;28;20202;-73
2022/08/31 04:50:09;;;;;;;2.00;1.90;;;;;;;;;;5065736;28;20222;-73
2022/08/31 04:52:35;;;;;;;2.20;2.10;;;;;;;;;;5054184;28;20225;-73
2022/08/31 04:55:02;;;;;;;2.80;2.70;;;;;;;;;;5082669;28;20199;-73
2022/08/31 04:57:27;;;;;;;2.73;2.63;;;;;;;;;;5069056;28;20245;-72
2022/08/31 04:59:53;;;;;;;2.70;2.60;;;;;;;;;;5058893;28;20227;-72
2022/08/31 05:02:19;;;;;;;3.00;2.90;;;;;;;;;;5050552;28;20242;-73
2022/08/31 05:04:45;;;;;;;2.80;2.70;;;;;;;;;;5068038;28;20258;-75
2022/08/31 05:07:11;;;;;;;3.00;2.90;;;;;;;;;;5059370;28;20280;-76
2022/08/31 05:09:37;;;;;;;2.60;2.50;;;;;;;;;;5047453;28;20685;-75
2022/08/31 05:12:03;;;;;;;2.63;2.53;;;;;;;;;;5066617;28;20678;-75
2022/08/31 05:14:29;;;;;;;2.40;2.30;;;;;;;;;;5059293;28;20336;-75
2022/08/31 05:16:55;;;;;;;2.80;2.70;;;;;;;;;;5052546;28;20295;-73
2022/08/31 05:19:21;;;;;;;2.20;2.10;;;;;;;;;;5058343;28;20222;-73
2022/08/31 05:21:47;;;;;;;2.40;2.30;;;;;;;;;;5051849;28;20225;-72
2022/08/31 05:24:19;;;;;;;2.20;2.10;;;;;;;;;;5049468;28;22360;-71
2022/08/31 05:26:48;;;;;;;2.20;2.10;;;;;;;;;;5042790;28;20191;-72
2022/08/31 05:29:15;;;;;;;2.20;2.10;;;;;;;;;;5036488;28;20730;-74
2022/08/31 05:31:41;;;;;;;2.40;2.30;;;;;;;;;;5044410;28;20340;-75
2022/08/31 05:34:07;;;;;;;2.43;2.33;;;;;;;;;;5051481;28;20693;-74
2022/08/31 05:36:33;;;;;;;2.40;2.30;;;;;;;;;;5057352;28;20287;-73
2022/08/31 05:39:00;;;;;;;2.27;2.17;;;;;;;;;;5071007;28;21107;-73
2022/08/31 05:41:26;;;;;;;2.20;2.10;;;;;;;;;;5061082;28;20226;-73
2022/08/31 05:43:52;;;;;;;2.30;2.20;;;;;;;;;;5059803;28;20207;-74
2022/08/31 05:46:18;;;;;;;2.40;2.30;;;;;;;;;;5070507;28;20226;-73
2022/08/31 05:48:44;;;;;;;2.40;2.30;;;;;;;;;;5067927;28;20392;-73
2022/08/31 05:51:14;;;;;;;2.50;2.40;;;;;;;;;;5072542;28;20199;-74
2022/08/31 05:53:40;;;;;;;2.50;2.40;;;;;;;;;;5071080;28;20206;-74
2022/08/31 05:56:09;;;;;;;2.20;2.10;;;;;;;;;;5059668;28;20311;-73
2022/08/31 05:58:35;;;;;;;2.20;2.10;;;;;;;;;;5068827;28;20222;-73
2022/08/31 06:01:01;;;;;;;2.00;1.90;;;;;;;;;;5069735;28;20226;-73
2022/08/31 06:03:28;;;;;;;2.40;2.30;;;;;;;;;;5055913;28;20252;-74
2022/08/31 06:05:54;;;;;;;2.50;2.40;;;;;;;;;;5067010;28;21265;-73
2022/08/31 06:08:20;;;;;;;2.47;2.37;;;;;;;;;;5053229;28;20320;-73
2022/08/31 06:10:46;;;;;;;2.17;2.07;;;;;;;;;;5088439;28;20276;-73
2022/08/31 06:13:13;;;;;;;2.47;2.37;;;;;;;;;;5057216;28;20250;-73
2022/08/31 06:15:39;;;;;;;2.50;2.40;;;;;;;;;;5053140;28;20252;-74
2022/08/31 06:18:06;;;;;;;2.00;1.90;;;;;;;;;;5068059;28;20285;-73
2022/08/31 06:20:36;;;;;;;2.20;2.10;;;;;;;;;;5065301;28;20226;-74
2022/08/31 06:23:02;;;;;;;1.90;1.80;;;;;;;;;;5056763;28;20194;-74
2022/08/31 06:25:28;;;;;;;2.10;2.00;;;;;;;;;;5063254;28;20221;-73
2022/08/31 06:27:55;;;;;;;2.03;1.93;;;;;;;;;;5067997;28;20214;-73
2022/08/31 06:30:25;;;;;;;2.20;2.10;;;;;;;;;;5070525;28;20199;-74
2022/08/31 06:32:51;;;;;;;2.20;2.10;;;;;;;;;;5064646;28;20195;-74
2022/08/31 06:35:17;;;;;;;2.30;2.20;;;;;;;;;;5045285;28;20250;-74
2022/08/31 06:37:44;;;;;;;2.10;2.00;;;;;;;;;;5043187;28;20195;-73
2022/08/31 06:40:10;;;;;;;2.30;2.20;;;;;;;;;;5052074;28;20838;-73
2022/08/31 06:42:36;;;;;;;2.10;2.00;;;;;;;;;;5037104;28;20288;-73
2022/08/31 06:45:02;;;;;;;2.00;1.90;;;;;;;;;;5051223;28;20196;-74
2022/08/31 06:47:28;;;;;;;2.30;2.20;;;;;;;;;;5043849;28;20211;-73
2022/08/31 06:49:56;;;;;;;2.10;2.00;;;;;;;;;;5051967;28;20226;-74
2022/08/31 06:52:22;;;;;;;2.10;2.00;;;;;;;;;;5049236;28;21446;-73
2022/08/31 06:54:48;;;;;;;2.20;2.10;;;;;;;;;;5051899;28;20224;-73
2022/08/31 06:57:14;;;;;;;2.20;2.10;;;;;;;;;;5046511;28;20223;-73
2022/08/31 06:59:40;;;;;;;2.20;2.10;;;;;;;;;;5032483;28;20297;-73
2022/08/31 07:02:06;;;;;;;2.10;2.00;;;;;;;;;;5050958;28;20303;-73
2022/08/31 07:04:35;;;;;;;2.10;2.00;;;;;;;;;;5054277;28;20227;-73
2022/08/31 07:07:01;;;;;;;2.13;2.03;;;;;;;;;;5049430;28;20282;-73
2022/08/31 07:09:27;;;;;;;2.07;1.97;;;;;;;;;;5046707;28;20265;-73
2022/08/31 07:11:53;;;;;;;2.23;2.13;;;;;;;;;;5053233;28;20198;-73
2022/08/31 07:14:20;;;;;;;2.00;1.90;;;;;;;;;;5052639;28;20187;-73
2022/08/31 07:16:47;;;;;;;2.50;2.40;;;;;;;;;;5044011;28;20237;-73
2022/08/31 07:19:13;;;;;;;2.10;2.00;;;;;;;;;;5049094;28;20384;-73
2022/08/31 07:21:40;;;;;;;2.07;1.97;;;;;;;;;;5047125;28;20326;-74
2022/08/31 07:24:06;;;;;;;2.20;2.10;;;;;;;;;;5048850;28;20223;-73
2022/08/31 07:26:33;;;;;;;2.27;2.17;;;;;;;;;;5048837;28;20231;-73
2022/08/31 07:29:00;;;;;;;2.00;1.90;;;;;;;;;;5048380;28;20730;-73
2022/08/31 07:31:36;;;;;;;2.20;2.10;;;;;;;;;;5045421;28;20318;-73
2022/08/31 07:34:05;;;;;;;2.20;2.10;;;;;;;;;;5054540;28;20233;-73
2022/08/31 07:36:31;;;;;;;2.30;2.20;;;;;;;;;;5056952;28;20235;-73
2022/08/31 07:44:26;;;;;;;2.40;2.30;;;;;;;;;;5068878;28;20266;-73
2022/08/31 07:46:53;;;;;;;2.00;1.90;;;;;;;;;;5062774;28;20212;-73
2022/08/31 07:49:20;;;;;;;2.10;2.00;;;;;;;;;;5060161;28;20227;-73
2022/08/31 07:51:49;;;;;;;2.10;2.00;;;;;;;;;;5069914;28;20179;-73
2022/08/31 07:54:17;;;;;;;2.20;2.10;;;;;;;;;;5065328;28;20579;-73
2022/08/31 07:56:45;;;;;;;2.28;2.17;;;;;;;;;;5071478;28;20215;-74
2022/08/31 07:59:13;;;;;;;1.60;1.60;;;;;;;;;;5065330;28;20299;-73
2022/08/31 08:01:40;;;;;;;2.10;2.00;;;;;;;;;;5069407;28;20184;-74
2022/08/31 08:04:06;;;;;;;2.30;2.20;;;;;;;;;;5046066;28;20913;-73
2022/08/31 08:06:32;;;;;;;2.30;2.20;;;;;;;;;;5063040;28;20230;-74
2022/08/31 08:09:05;;;;;;;2.35;2.25;;;;;;;;;;5063880;28;20219;-74
2022/08/31 08:11:31;;;;;;;2.25;2.15;;;;;;;;;;5064580;28;20223;-74
2022/08/31 08:13:58;;;;;;;2.30;2.20;;;;;;;;;;5066572;28;20238;-74
2022/08/31 08:16:24;;;;;;;2.40;2.30;;;;;;;;;;5052573;28;20203;-73
2022/08/31 08:18:50;;;;;;;1.95;1.85;;;;;;;;;;5064470;28;20226;-74
2022/08/31 08:21:16;;;;;;;2.10;2.00;;;;;;;;;;5067542;28;20258;-74
2022/08/31 08:23:42;;;;;;;2.05;1.95;;;;;;;;;;5066525;28;20294;-74
2022/08/31 08:26:08;;;;;;;2.00;1.90;;;;;;;;;;5093605;28;20230;-74
2022/08/31 08:28:34;;;;;;;2.20;2.10;;;;;;;;;;5072444;28;20699;-74
2022/08/31 08:31:00;;;;;;;2.10;2.00;;;;;;;;;;5069493;28;20227;-73
2022/08/31 08:33:27;;;;;;;2.15;2.05;;;;;;;;;;5063671;28;20207;-74
2022/08/31 08:35:55;;;;;;;2.25;2.15;;;;;;;;;;5069038;28;20630;-74
2022/08/31 08:38:21;;;;;;;2.28;2.17;;;;;;;;;;5069807;28;21399;-74
2022/08/31 08:40:50;;;;;;;2.65;2.55;;;;;;;;;;5056274;28;20315;-73
2022/08/31 08:43:16;;;;;;;2.20;2.10;;;;;;;;;;5069388;28;20195;-73
2022/08/31 08:45:42;;;;;;;2.50;2.40;;;;;;;;;;5072090;28;20199;-74
2022/08/31 08:48:10;;;;;;;2.50;2.40;;;;;;;;;;5061450;28;20315;-74
2022/08/31 08:50:36;;;;;;;2.70;2.60;;;;;;;;;;5060601;28;20222;-74
2022/08/31 08:53:03;;;;;;;2.55;2.45;;;;;;;;;;5069855;28;20223;-74
2022/08/31 08:55:39;;;;;;;3.10;3.00;;;;;;;;;;5060569;28;20245;-74
2022/08/31 08:58:06;;;;;;;2.60;2.50;;;;;;;;;;5045859;28;20187;-74
2022/08/31 09:00:33;;;;;;;2.60;2.50;;;;;;;;;;5047070;28;20334;-74
2022/08/31 09:03:20;;;;;;;2.70;2.60;;;;;;;;;;5048827;28;20800;-74
2022/08/31 09:06:00;;;;;;;2.50;2.40;;;;;;;;;;5055348;28;20653;-74
2022/08/31 09:08:42;;;;;;;2.78;2.67;;;;;;;;;;5048559;28;20198;-75
2022/08/31 09:11:21;;;;;;;3.00;2.90;;;;;;;;;;5053432;28;20223;-73
2022/08/31 09:13:47;;;;;;;2.50;2.40;;;;;;;;;;5074210;28;20203;-74
2022/08/31 09:16:24;;;;;;;2.78;2.67;;;;;;;;;;5067171;28;20196;-75
2022/08/31 09:19:04;;;;;;;2.60;2.50;;;;;;;;;;5040169;28;20697;-74
2022/08/31 09:21:38;;;;;;;2.90;2.80;;;;;;;;;;5051965;28;20341;-74
2022/08/31 09:24:05;;;;;;;2.58;2.47;;;;;;;;;;5053739;28;20218;-74
2022/08/31 09:26:34;;;;;;;2.80;2.70;;;;;;;;;;5051631;28;20196;-75
2022/08/31 09:29:02;;;;;;;2.80;2.70;;;;;;;;;;5049636;28;22137;-74
2022/08/31 09:31:33;;;;;;;2.33;2.22;;;;;;;;;;5054382;28;20225;-73
2022/08/31 09:33:59;;;;;;;2.40;2.30;;;;;;;;;;5054376;28;20225;-74
2022/08/31 09:36:32;;;;;;;2.63;2.53;;;;;;;;;;5052040;28;20269;-74
2022/08/31 09:38:59;;;;;;;2.60;2.50;;;;;;;;;;5059243;28;20913;-74
2022/08/31 09:41:29;;;;;;;2.45;2.35;;;;;;;;;;5054662;28;20303;-74
2022/08/31 09:43:57;;;;;;;2.30;2.20;;;;;;;;;;5062171;28;20200;-74
2022/08/31 09:46:25;;;;;;;2.33;2.22;;;;;;;;;;5070712;28;20298;-74
2022/08/31 09:48:54;;;;;;;2.40;2.30;;;;;;;;;;5053840;28;20271;-74
2022/08/31 09:51:20;;;;;;;2.40;2.30;;;;;;;;;;5063462;28;20209;-74
2022/08/31 09:56:31;;;;;;;2.30;2.20;;;;;;;;;;5051757;28;20589;-73
2022/08/31 09:59:01;;;;;;;1.90;1.80;;;;;;;;;;5048046;28;20237;-75
2022/08/31 10:01:42;;;;;;;1.58;1.58;;;;;;;;;;5049391;28;20208;-74
2022/08/31 10:04:15;;;;;;;2.45;2.35;;;;;;;;;;5046845;28;20325;-74
2022/08/31 10:06:45;;;;;;;2.22;2.13;;;;;;;;;;5044235;28;20209;-74
2022/08/31 10:09:17;;;;;;;2.20;2.10;;;;;;;;;;5043085;28;20235;-74
2022/08/31 10:11:46;;;;;;;2.30;2.20;;;;;;;;;;5053878;28;20218;-74
2022/08/31 10:14:26;;;;;;;2.35;2.25;;;;;;;;;;5064633;28;20692;-74
2022/08/31 10:16:59;;;;;;;2.30;2.20;;;;;;;;;;5047858;28;20219;-75
2022/08/31 10:19:31;;;;;;;2.30;2.20;;;;;;;;;;5043318;28;20672;-74
2022/08/31 10:21:58;;;;;;;2.33;2.22;;;;;;;;;;5057482;28;21190;-74
2022/08/31 10:24:27;;;;;;;2.25;2.15;;;;;;;;;;5052450;28;20214;-73
2022/08/31 10:27:14;;;;;;;2.40;2.30;;;;;;;;;;5037202;28;20289;-75
2022/08/31 10:29:44;;;;;;;2.25;2.15;;;;;;;;;;5033780;28;20207;-74
2022/08/31 10:32:15;;;;;;;2.20;2.10;;;;;;;;;;5046658;28;21150;-74
2022/08/31 10:37:30;;;;;;;1.52;1.52;;;;;;;;;;5079397;28;20561;-74
2022/08/31 10:40:04;;;;;;;2.30;2.20;;;;;;;;;;5046337;28;21445;-74
2022/08/31 10:42:36;;;;;;;1.88;1.77;;;;;;;;;;5073089;28;20230;-74
2022/08/31 10:45:21;;;;;;;1.60;1.60;;;;;;;;;;5072513;28;20198;-74
2022/08/31 10:47:48;;;;;;;1.52;1.52;;;;;;;;;;5055787;28;20210;-75
2022/08/31 10:50:15;;;;;;;1.60;1.60;;;;;;;;;;5072777;28;20190;-74
2022/08/31 10:52:47;;;;;;;1.60;1.60;;;;;;;;;;5067425;28;20214;-74
2022/08/31 10:55:27;;;;;;;1.50;1.50;;;;;;;;;;5073062;28;20283;-74
2022/08/31 10:58:06;;;;;;;1.58;1.58;;;;;;;;;;5050683;28;20218;-74
2022/08/31 11:00:46;;;;;;;1.60;1.60;;;;;;;;;;5066046;28;20245;-74
2022/08/31 11:03:31;;;;;;;1.50;1.50;;;;;;;;;;5085776;28;20202;-75
2022/08/31 11:06:00;;;;;;;1.60;1.60;;;;;;;;;;5084107;28;20317;-75
2022/08/31 11:08:41;;;;;;;1.83;1.73;;;;;;;;;;5055458;28;20343;-73
2022/08/31 11:11:08;;;;;;;1.80;1.70;;;;;;;;;;5066792;28;20202;-74
2022/08/31 11:13:37;;;;;;;1.83;1.73;;;;;;;;;;5071827;28;20211;-74
2022/08/31 11:16:06;;;;;;;1.70;1.70;;;;;;;;;;5084804;28;21230;-74
2022/08/31 11:18:35;;;;;;;1.52;1.52;;;;;;;;;;5060900;28;20215;-76
2022/08/31 11:21:00;;;;;;;;;;;;;;;;;;5053977;28;20163;-76
2022/08/31 11:23:26;;;;;;;;;;;;;;;;;;5075805;28;19951;-75
2022/08/31 11:25:52;;;;;;;;;;;;;;;;;;5096282;28;19919;-74
2022/08/31 11:28:22;;;;;;;;;;;;;;;;;;5108118;28;19934;-75
2022/08/31 11:30:48;;;;;;;1.55;1.55;;;;;;;;;;5103074;28;20427;-74
2022/08/31 11:33:18;;;;;;;0.60;0.60;;;;;;;;;;5101767;28;20599;-75
2022/08/31 11:36:01;;;;;;;0.70;0.70;;;;;;;;;;5083316;28;20396;-75
2022/08/31 11:38:51;;;;;;;0.68;0.68;;;;;;;;;;5078704;28;20412;-74
2022/08/31 11:41:37;;;;;;;0.60;0.60;;;;;;;;;;5101643;28;20445;-75
2022/08/31 11:44:03;;;;;;;0.50;0.50;;;;;;;;;;5100798;27;20485;-74
2022/08/31 11:46:42;;;;;;;0.68;0.68;;;;;;;;;;5083612;28;20415;-75
2022/08/31 11:49:09;;;;;;;0.60;0.60;;;;;;;;;;5063908;28;20433;-74
2022/08/31 11:51:37;;;;;;;0.65;0.65;;;;;;;;;;5067906;28;20468;-75
2022/08/31 11:54:04;;;;;;;0.60;0.60;;;;;;;;;;5053703;28;20849;-74
2022/08/31 11:56:40;;;;;;;0.60;0.60;;;;;;;;;;5058850;28;20414;-74
2022/08/31 11:59:25;;;;;;;0.70;0.70;;;;;;;;;;5060618;28;20494;-74
2022/08/31 12:01:53;;;;;;;0.60;0.60;;;;;;;;;;5066699;28;20317;-74
2022/08/31 12:04:46;;;;;;;0.60;0.60;;;;;;;;;;5056228;28;20214;-74
2022/08/31 12:07:13;;;;;;;0.90;0.90;;;;;;;;;;5072147;28;20664;-74
2022/08/31 12:10:02;;;;;;;0.90;0.90;;;;;;;;;;5069984;28;20257;-74
2022/08/31 12:12:48;;;;;;;1.02;1.02;;;;;;;;;;5012935;28;20317;-75
2022/08/31 12:15:23;;;;;;;0.95;0.95;;;;;;;;;;5075652;28;20924;-76
2022/08/31 12:17:59;;;;;;;0.90;0.90;;;;;;;;;;5086894;28;20305;-75
2022/08/31 12:20:31;;;;;;;0.90;0.90;;;;;;;;;;5084909;28;20275;-74
2022/08/31 12:25:58;;;;;;;1.00;1.00;;;;;;;;;;5063558;28;20315;-75
2022/08/31 12:28:24;;;;;;;0.90;0.90;;;;;;;;;;5074021;28;20241;-76
2022/08/31 12:30:51;;;;;;;0.90;0.90;;;;;;;;;;5077637;28;20251;-75
2022/08/31 12:33:17;;;;;;;1.00;1.00;;;;;;;;;;5070319;28;20214;-76
2022/08/31 12:35:48;;;;;;;0.90;0.90;;;;;;;;;;5042481;28;20234;-74
2022/08/31 12:38:20;;;;;;;0.90;0.90;;;;;;;;;;5080608;28;20268;-75
2022/08/31 12:40:47;;;;;;;1.00;1.00;;;;;;;;;;5048045;28;21043;-75
2022/08/31 12:43:16;;;;;;;1.00;1.00;;;;;;;;;;5074711;28;20354;-75
2022/08/31 12:45:57;;;;;;;0.98;0.98;;;;;;;;;;5081437;28;20202;-75
2022/08/31 12:48:35;;;;;;;1.00;1.00;;;;;;;;;;5081161;28;21042;-75
2022/08/31 12:51:01;;;;;;;1.05;1.05;;;;;;;;;;5077826;28;20222;-74
2022/08/31 12:53:35;;;;;;;1.10;1.10;;;;;;;;;;5080247;28;20226;-75
2022/08/31 12:56:06;;;;;;;1.00;1.00;;;;;;;;;;5069124;28;20222;-75
2022/08/31 12:58:49;;;;;;;0.93;0.93;;;;;;;;;;5067323;28;20191;-74
2022/08/31 13:01:16;;;;;;;1.05;1.05;;;;;;;;;;5073329;28;20211;-74
2022/08/31 13:03:45;;;;;;;1.00;1.00;;;;;;;;;;5073810;28;20252;-74
2022/08/31 13:06:12;;;;;;;1.10;1.10;;;;;;;;;;5068270;27;20218;-74
2022/08/31 13:08:39;;;;;;;1.00;1.00;;;;;;;;;;5055190;28;20223;-74
2022/08/31 13:11:15;;;;;;;1.00;1.00;;;;;;;;;;5054402;28;20183;-74
2022/08/31 13:13:41;;;;;;;1.00;1.00;;;;;;;;;;5062945;28;20230;-74
2022/08/31 13:16:07;;;;;;;1.08;1.08;;;;;;;;;;5080471;28;20261;-75
2022/08/31 13:18:33;;;;;;;0.80;0.80;;;;;;;;;;5057852;28;20275;-75
2022/08/31 13:21:05;;;;;;;1.02;1.02;;;;;;;;;;5046738;28;20214;-75
2022/08/31 13:23:33;;;;;;;1.50;1.50;;;;;;;;;;5036223;28;20207;-74
2022/08/31 13:26:19;;;;;;;0.60;0.60;;;;;;;;;;5032540;28;20241;-75
2022/08/31 13:29:14;;;;;;;0.60;0.60;;;;;;;;;;5051355;28;20657;-75
2022/08/31 13:31:46;;;;;;;0.60;0.60;;;;;;;;;;5039473;28;20235;-75
2022/08/31 13:34:13;;;;;;;0.60;0.60;;;;;;;;;;5034260;28;20223;-71
2022/08/31 13:36:42;;;;;;;0.60;0.60;;;;;;;;;;5057062;28;20230;-70
2022/08/31 13:39:18;;;;;;;1.00;1.00;;;;;;;;;;5069472;28;20241;-70
2022/08/31 13:41:55;;;;;;;0.90;0.90;;;;;;;;;;5075673;28;20216;-70
2022/08/31 13:44:21;;;;;;;1.00;1.00;;;;;;;;;;5080919;28;20240;-71
2022/08/31 13:46:50;;;;;;;1.10;1.10;;;;;;;;;;5071518;28;20179;-71
2022/08/31 13:49:28;;;;;;;1.00;1.00;;;;;;;;;;5071018;28;20214;-70
2022/08/31 13:51:54;;;;;;;1.10;1.10;;;;;;;;;;5078988;28;20190;-71
2022/08/31 13:54:28;;;;;;;1.00;1.00;;;;;;;;;;5082460;28;20218;-70
2022/08/31 13:56:54;;;;;;;1.00;1.00;;;;;;;;;;5063579;28;20696;-71
2022/08/31 13:59:22;;;;;;;1.00;1.00;;;;;;;;;;5077311;28;20316;-70
2022/08/31 14:02:07;;;;;;;1.00;1.00;;;;;;;;;;5084978;28;20248;-70
2022/08/31 14:04:48;;;;;;;1.00;1.00;;;;;;;;;;5080422;28;20249;-71
2022/08/31 14:07:20;;;;;;;1.00;1.00;;;;;;;;;;5079662;28;20223;-70
2022/08/31 14:09:59;;;;;;;1.02;1.02;;;;;;;;;;5076811;28;20629;-70
2022/08/31 14:12:36;;;;;;;1.00;1.00;;;;;;;;;;5080892;28;20570;-70
2022/08/31 14:15:03;;;;;;;1.00;1.00;;;;;;;;;;5072721;28;20617;-70
2022/08/31 14:17:29;;;;;;;1.00;1.00;;;;;;;;;;5081526;28;20201;-70
2022/08/31 14:19:55;;;;;;;1.05;1.05;;;;;;;;;;5058753;28;20345;-70
2022/08/31 14:22:29;;;;;;;1.15;1.15;;;;;;;;;;5063029;28;20654;-69
2022/08/31 14:24:55;;;;;;;1.05;1.05;;;;;;;;;;5073244;28;20233;-69
2022/08/31 14:27:21;;;;;;;1.00;1.00;;;;;;;;;;5080904;28;20190;-71
2022/08/31 14:29:47;;;;;;;1.10;1.10;;;;;;;;;;5084932;28;20198;-72
2022/08/31 14:32:13;;;;;;;1.00;1.00;;;;;;;;;;5072477;28;20204;-71
2022/08/31 14:34:47;;;;;;;1.10;1.10;;;;;;;;;;5068769;28;20714;-70
2022/08/31 14:37:21;;;;;;;1.00;1.00;;;;;;;;;;5070193;28;21477;-70
2022/08/31 14:39:49;;;;;;;0.90;0.90;;;;;;;;;;5046868;28;20228;-71
2022/08/31 14:42:17;;;;;;;1.05;1.05;;;;;;;;;;5059515;28;20738;-71
2022/08/31 14:44:55;;;;;;;1.00;1.00;;;;;;;;;;5045695;28;20206;-71
2022/08/31 14:47:21;;;;;;;1.00;1.00;;;;;;;;;;5059422;28;20233;-72
2022/08/31 14:49:48;;;;;;;1.00;1.00;;;;;;;;;;5076868;28;20210;-71
2022/08/31 14:52:14;;;;;;;1.00;1.00;;;;;;;;;;5067575;28;20221;-71
2022/08/31 14:54:41;;;;;;;0.95;0.95;;;;;;;;;;5071383;28;20299;-71
2022/08/31 14:57:26;;;;;;;1.00;1.00;;;;;;;;;;5071681;28;20324;-71
2022/08/31 14:59:56;;;;;;;1.00;1.00;;;;;;;;;;5067661;28;20237;-71
2022/08/31 15:02:22;;;;;;;1.00;1.00;;;;;;;;;;5060549;28;20580;-71
2022/08/31 15:04:48;;;;;;;1.00;1.00;;;;;;;;;;5069050;28;20218;-71
2022/08/31 15:07:14;;;;;;;1.00;1.00;;;;;;;;;;5068328;28;20203;-72
2022/08/31 15:09:41;;;;;;;0.93;0.93;;;;;;;;;;5049683;28;20199;-70